Time;durP1;ratioP1;P1;durP2;ratioP2;P2;SDS_P1;SDS_P2;PMS_P1;PMS_P2;Temp;Humidity;BMP_temperature;BMP_pressure;BME280_temperature;BME280_humidity;BME280_pressure;Samples;Min_cycle;Max_cycle;Signal;HPM_P1;HPM_P2
2024/04/24 00:01:20;;;;;;;16.93;16.33;;;;;;;;;;5449950;25;21287;-70
2024/04/24 00:03:49;;;;;;;17.33;16.73;;;;;;;;;;5449433;26;20487;-69
2024/04/24 00:06:18;;;;;;;17.40;16.80;;;;;;;;;;5451400;26;20476;-70
2024/04/24 00:08:46;;;;;;;17.77;17.17;;;;;;;;;;5449370;26;20819;-71
2024/04/24 00:11:23;;;;;;;17.60;17.00;;;;;;;;;;5447528;26;20472;-68
2024/04/24 00:13:52;;;;;;;17.33;16.73;;;;;;;;;;5444822;26;20469;-69
2024/04/24 00:16:21;;;;;;;17.73;17.10;;;;;;;;;;5444124;26;21148;-70
2024/04/24 00:18:50;;;;;;;18.60;17.90;;;;;;;;;;5450032;26;20619;-70
2024/04/24 00:21:19;;;;;;;17.53;16.93;;;;;;;;;;5448931;25;20660;-69
2024/04/24 00:23:48;;;;;;;17.87;17.17;;;;;;;;;;5448979;25;20492;-69
2024/04/24 00:26:16;;;;;;;18.30;17.60;;;;;;;;;;5451485;26;20728;-69
2024/04/24 00:28:48;;;;;;;18.40;17.70;;;;;;;;;;5450833;26;20856;-69
2024/04/24 00:31:17;;;;;;;18.20;17.50;;;;;;;;;;5450062;26;20582;-69
2024/04/24 00:33:45;;;;;;;18.33;17.63;;;;;;;;;;5446862;26;20462;-68
2024/04/24 00:36:14;;;;;;;18.17;17.47;;;;;;;;;;5451260;26;20568;-68
2024/04/24 00:38:43;;;;;;;19.30;18.50;;;;;;;;;;5450534;26;20890;-68
2024/04/24 00:41:12;;;;;;;19.37;18.57;;;;;;;;;;5448101;26;20470;-69
2024/04/24 00:43:41;;;;;;;19.83;19.03;;;;;;;;;;5449171;26;20473;-69
2024/04/24 00:46:14;;;;;;;19.57;18.77;;;;;;;;;;5449341;26;21388;-68
2024/04/24 00:48:44;;;;;;;19.80;19.00;;;;;;;;;;5445390;26;20885;-68
2024/04/24 00:51:14;;;;;;;20.27;19.47;;;;;;;;;;5446205;25;20527;-70
2024/04/24 00:53:43;;;;;;;19.87;19.07;;;;;;;;;;5449545;26;20477;-69
2024/04/24 00:56:12;;;;;;;19.37;18.57;;;;;;;;;;5445060;25;20494;-70
2024/04/24 00:58:41;;;;;;;18.53;17.83;;;;;;;;;;5446438;26;20485;-69
2024/04/24 01:01:14;;;;;;;18.13;17.43;;;;;;;;;;5498999;26;20486;-69
2024/04/24 01:03:44;;;;;;;18.73;18.03;;;;;;;;;;5504341;26;20536;-67
2024/04/24 01:06:13;;;;;;;18.77;18.07;;;;;;;;;;5518213;26;20930;-67
2024/04/24 01:08:41;;;;;;;19.33;18.53;;;;;;;;;;5500634;26;20580;-68
2024/04/24 01:11:11;;;;;;;18.83;18.13;;;;;;;;;;5507273;26;20581;-67
2024/04/24 01:13:40;;;;;;;18.57;17.87;;;;;;;;;;5512761;26;20949;-69
2024/04/24 01:16:15;;;;;;;18.83;18.03;;;;;;;;;;5502041;26;21935;-69
2024/04/24 01:18:47;;;;;;;18.37;17.67;;;;;;;;;;5509774;26;20550;-69
2024/04/24 01:21:17;;;;;;;19.37;18.57;;;;;;;;;;5502376;26;20535;-67
2024/04/24 01:23:50;;;;;;;19.70;18.90;;;;;;;;;;5506731;25;20526;-68
2024/04/24 01:26:23;;;;;;;19.20;18.40;;;;;;;;;;5499229;26;20529;-67
2024/04/24 01:28:54;;;;;;;19.50;18.70;;;;;;;;;;5500181;26;20484;-68
2024/04/24 01:31:24;;;;;;;19.20;18.40;;;;;;;;;;5505974;25;20544;-69
2024/04/24 01:33:53;;;;;;;19.63;18.83;;;;;;;;;;5512480;25;21278;-69
2024/04/24 01:36:22;;;;;;;18.93;18.13;;;;;;;;;;5514743;26;20514;-68
2024/04/24 01:38:51;;;;;;;20.10;19.30;;;;;;;;;;5507137;26;20959;-69
2024/04/24 01:41:20;;;;;;;18.80;18.10;;;;;;;;;;5515669;25;20610;-68
2024/04/24 01:43:49;;;;;;;19.77;18.97;;;;;;;;;;5497732;25;21004;-68
2024/04/24 01:46:20;;;;;;;19.27;18.47;;;;;;;;;;5510494;26;20480;-69
2024/04/24 01:48:49;;;;;;;19.90;19.10;;;;;;;;;;5514449;26;20466;-69
2024/04/24 01:51:18;;;;;;;19.97;19.17;;;;;;;;;;5519839;25;20618;-69
2024/04/24 01:53:47;;;;;;;19.70;18.90;;;;;;;;;;5513690;26;20970;-70
2024/04/24 01:56:15;;;;;;;20.73;19.83;;;;;;;;;;5513159;26;20457;-70
2024/04/24 01:58:44;;;;;;;20.00;19.20;;;;;;;;;;5504686;26;20542;-70
2024/04/24 02:01:14;;;;;;;20.50;19.60;;;;;;;;;;5507117;26;20647;-70
2024/04/24 02:03:46;;;;;;;20.90;20.00;;;;;;;;;;5497965;26;20473;-69
2024/04/24 02:06:15;;;;;;;20.33;19.43;;;;;;;;;;5515288;26;20452;-69
2024/04/24 02:08:43;;;;;;;20.30;19.40;;;;;;;;;;5502356;26;20485;-70
2024/04/24 02:11:12;;;;;;;20.57;19.67;;;;;;;;;;5520481;26;21235;-70
2024/04/24 02:13:41;;;;;;;19.47;18.67;;;;;;;;;;5509154;26;20463;-69
2024/04/24 02:16:10;;;;;;;20.47;19.67;;;;;;;;;;5499862;25;20528;-69
2024/04/24 02:18:39;;;;;;;19.80;19.00;;;;;;;;;;5505661;26;20951;-68
2024/04/24 02:21:11;;;;;;;19.13;18.33;;;;;;;;;;5502319;26;20700;-68
2024/04/24 02:23:41;;;;;;;19.93;19.13;;;;;;;;;;5516540;25;21352;-70
2024/04/24 02:26:09;;;;;;;20.73;19.83;;;;;;;;;;5509000;26;20504;-68
2024/04/24 02:28:37;;;;;;;20.00;19.20;;;;;;;;;;5499906;26;20537;-70
2024/04/24 02:31:06;;;;;;;20.20;19.30;;;;;;;;;;5509226;25;21042;-70
2024/04/24 02:33:36;;;;;;;20.50;19.60;;;;;;;;;;5501759;26;20589;-70
2024/04/24 02:36:05;;;;;;;20.50;19.60;;;;;;;;;;5496388;26;20531;-69
2024/04/24 02:38:37;;;;;;;20.63;19.73;;;;;;;;;;5496839;25;20912;-68
2024/04/24 02:41:06;;;;;;;20.27;19.47;;;;;;;;;;5502885;26;20909;-70
2024/04/24 02:43:35;;;;;;;20.67;19.77;;;;;;;;;;5505899;26;21148;-69
2024/04/24 02:46:05;;;;;;;20.50;19.60;;;;;;;;;;5510186;26;20513;-70
2024/04/24 02:48:32;;;;;;;20.70;19.83;;;;;;;;;;5504150;26;20565;-70
2024/04/24 02:51:02;;;;;;;20.17;19.37;;;;;;;;;;5521143;25;20833;-69
2024/04/24 02:53:31;;;;;;;20.50;19.70;;;;;;;;;;5490174;26;20477;-69
2024/04/24 02:56:03;;;;;;;19.80;19.00;;;;;;;;;;5497591;26;20538;-69
2024/04/24 02:58:32;;;;;;;19.37;18.57;;;;;;;;;;5516252;26;20531;-69
2024/04/24 03:01:02;;;;;;;19.70;18.90;;;;;;;;;;5497008;26;20466;-70
2024/04/24 03:03:30;;;;;;;19.70;18.90;;;;;;;;;;5506329;26;20471;-68
2024/04/24 03:06:00;;;;;;;19.17;18.37;;;;;;;;;;5494096;26;20632;-69
2024/04/24 03:08:29;;;;;;;19.30;18.50;;;;;;;;;;5494666;26;20814;-68
2024/04/24 03:10:58;;;;;;;19.33;18.53;;;;;;;;;;5518935;25;20550;-70
2024/04/24 03:13:30;;;;;;;19.13;18.33;;;;;;;;;;5491777;26;20546;-69
2024/04/24 03:15:59;;;;;;;18.30;17.60;;;;;;;;;;5497954;26;20664;-69
2024/04/24 03:18:28;;;;;;;19.23;18.43;;;;;;;;;;5508811;26;20548;-70
2024/04/24 03:20:57;;;;;;;19.10;18.30;;;;;;;;;;5507172;26;20530;-69
2024/04/24 03:23:26;;;;;;;19.73;18.93;;;;;;;;;;5503592;25;20482;-70
2024/04/24 03:25:56;;;;;;;19.70;18.90;;;;;;;;;;5506503;26;20490;-68
2024/04/24 03:28:25;;;;;;;19.50;18.70;;;;;;;;;;5509830;26;20467;-68
2024/04/24 03:30:57;;;;;;;18.97;18.20;;;;;;;;;;5495685;26;20521;-69
2024/04/24 03:33:27;;;;;;;19.27;18.47;;;;;;;;;;5517141;25;20536;-68
2024/04/24 03:35:56;;;;;;;18.67;17.97;;;;;;;;;;5493527;26;20527;-69
2024/04/24 03:38:26;;;;;;;19.10;18.30;;;;;;;;;;5505623;26;21046;-68
2024/04/24 03:40:56;;;;;;;18.93;18.23;;;;;;;;;;5514173;26;20574;-68
2024/04/24 03:43:25;;;;;;;18.07;17.37;;;;;;;;;;5497282;26;20511;-69
2024/04/24 03:45:56;;;;;;;18.50;17.80;;;;;;;;;;5496172;26;20561;-69
2024/04/24 03:48:26;;;;;;;17.43;16.73;;;;;;;;;;5502045;26;20492;-70
2024/04/24 03:50:55;;;;;;;18.17;17.47;;;;;;;;;;5489718;26;20579;-69
2024/04/24 03:53:23;;;;;;;18.70;18.00;;;;;;;;;;5510316;26;20903;-69
2024/04/24 03:55:52;;;;;;;18.50;17.80;;;;;;;;;;5509068;26;20549;-68
2024/04/24 03:58:21;;;;;;;17.70;17.00;;;;;;;;;;5516520;25;20461;-68
2024/04/24 04:00:51;;;;;;;17.60;16.90;;;;;;;;;;5502728;26;20535;-68
2024/04/24 04:03:23;;;;;;;17.03;16.33;;;;;;;;;;5518456;25;20476;-69
2024/04/24 04:05:52;;;;;;;17.30;16.60;;;;;;;;;;5490664;26;21048;-69
2024/04/24 04:08:22;;;;;;;17.60;16.90;;;;;;;;;;5489165;26;21265;-70
2024/04/24 04:10:51;;;;;;;17.10;16.40;;;;;;;;;;5496342;25;20587;-69
2024/04/24 04:13:18;;;;;;;16.77;16.17;;;;;;;;;;5515778;25;20462;-69
2024/04/24 04:15:47;;;;;;;16.67;16.07;;;;;;;;;;5508023;26;20468;-69
2024/04/24 04:18:16;;;;;;;16.50;15.90;;;;;;;;;;5510803;26;20486;-69
2024/04/24 04:20:47;;;;;;;16.10;15.50;;;;;;;;;;5504459;26;21006;-68
2024/04/24 04:23:17;;;;;;;16.70;16.10;;;;;;;;;;5511644;26;20484;-68
2024/04/24 04:25:46;;;;;;;16.40;15.80;;;;;;;;;;5508399;26;20892;-68
2024/04/24 04:28:15;;;;;;;16.60;16.00;;;;;;;;;;5501482;26;20836;-69
2024/04/24 04:30:45;;;;;;;16.17;15.57;;;;;;;;;;5513064;26;20603;-69
2024/04/24 04:33:14;;;;;;;16.20;15.60;;;;;;;;;;5498121;26;20891;-69
2024/04/24 04:35:43;;;;;;;16.10;15.50;;;;;;;;;;5495765;26;20477;-69
2024/04/24 04:38:15;;;;;;;16.00;15.40;;;;;;;;;;5502891;26;20472;-68
2024/04/24 04:40:45;;;;;;;16.17;15.57;;;;;;;;;;5491458;26;20944;-69
2024/04/24 04:43:14;;;;;;;15.90;15.40;;;;;;;;;;5493840;26;21388;-67
2024/04/24 04:45:43;;;;;;;16.13;15.53;;;;;;;;;;5512800;26;20517;-69
2024/04/24 04:48:12;;;;;;;15.40;14.90;;;;;;;;;;5514454;26;20519;-68
2024/04/24 04:50:41;;;;;;;15.70;15.20;;;;;;;;;;5516932;25;20540;-69
2024/04/24 04:53:10;;;;;;;15.57;15.07;;;;;;;;;;5492255;26;20597;-68
2024/04/24 04:55:42;;;;;;;15.30;14.80;;;;;;;;;;5497746;26;20469;-69
2024/04/24 04:58:10;;;;;;;15.50;15.00;;;;;;;;;;5513489;26;20465;-69
2024/04/24 05:00:40;;;;;;;15.10;14.60;;;;;;;;;;5499850;26;21006;-68
2024/04/24 05:03:09;;;;;;;14.30;13.90;;;;;;;;;;5504710;26;20529;-68
2024/04/24 05:05:38;;;;;;;13.90;13.50;;;;;;;;;;5499737;26;20522;-68
2024/04/24 05:08:07;;;;;;;13.70;13.30;;;;;;;;;;5510589;26;20529;-68
2024/04/24 05:10:36;;;;;;;13.47;13.07;;;;;;;;;;5508922;26;20481;-68
2024/04/24 05:13:12;;;;;;;12.83;12.53;;;;;;;;;;5495761;25;20826;-68
2024/04/24 05:15:41;;;;;;;13.00;12.70;;;;;;;;;;5509240;26;20486;-67
2024/04/24 05:18:10;;;;;;;12.53;12.23;;;;;;;;;;5506611;26;20453;-68
2024/04/24 05:20:39;;;;;;;11.73;11.43;;;;;;;;;;5506892;26;21010;-68
2024/04/24 05:23:08;;;;;;;12.00;11.70;;;;;;;;;;5493826;26;20537;-68
2024/04/24 05:25:38;;;;;;;10.50;10.30;;;;;;;;;;5472427;26;21074;-68
2024/04/24 05:30:57;;;;;;;8.93;8.80;;;;;;;;;;5472302;26;20555;-68
2024/04/24 05:33:26;;;;;;;9.03;8.90;;;;;;;;;;5482267;26;20586;-68
2024/04/24 05:35:55;;;;;;;8.43;8.33;;;;;;;;;;5468105;26;20672;-68
2024/04/24 05:38:25;;;;;;;8.30;8.20;;;;;;;;;;5473866;26;20458;-67
2024/04/24 05:40:54;;;;;;;8.57;8.47;;;;;;;;;;5479116;26;20583;-68
2024/04/24 05:43:26;;;;;;;8.13;8.03;;;;;;;;;;5475286;26;20490;-68
2024/04/24 05:45:58;;;;;;;8.10;8.00;;;;;;;;;;5468836;26;20539;-68
2024/04/24 05:48:27;;;;;;;8.13;8.03;;;;;;;;;;5469415;26;20529;-68
2024/04/24 05:50:56;;;;;;;7.83;7.73;;;;;;;;;;5465365;26;20557;-68
2024/04/24 05:53:27;;;;;;;7.80;7.70;;;;;;;;;;5474207;26;20530;-68
2024/04/24 05:55:56;;;;;;;7.57;7.47;;;;;;;;;;5466822;26;21103;-68
2024/04/24 05:58:28;;;;;;;7.40;7.30;;;;;;;;;;5465303;26;20458;-68
2024/04/24 06:00:57;;;;;;;8.17;8.07;;;;;;;;;;5459873;26;20493;-69
2024/04/24 06:03:26;;;;;;;7.60;7.50;;;;;;;;;;5465910;26;20478;-67
2024/04/24 06:05:55;;;;;;;8.40;8.30;;;;;;;;;;5460091;26;20647;-68
2024/04/24 06:08:24;;;;;;;7.77;7.67;;;;;;;;;;5470806;26;20541;-68
2024/04/24 06:10:52;;;;;;;8.17;8.07;;;;;;;;;;5467395;26;20487;-67
2024/04/24 06:13:22;;;;;;;8.70;8.60;;;;;;;;;;5471225;26;20619;-69
2024/04/24 06:15:54;;;;;;;8.13;8.03;;;;;;;;;;5466225;26;20526;-68
2024/04/24 06:18:23;;;;;;;8.30;8.20;;;;;;;;;;5457861;26;20701;-68
2024/04/24 06:20:52;;;;;;;8.93;8.77;;;;;;;;;;5452862;26;20483;-68
2024/04/24 06:23:21;;;;;;;8.77;8.63;;;;;;;;;;5473446;25;20600;-69
2024/04/24 06:25:50;;;;;;;9.23;9.03;;;;;;;;;;5487009;25;20472;-68
2024/04/24 06:28:20;;;;;;;9.97;9.77;;;;;;;;;;5494679;25;20479;-69
2024/04/24 06:30:49;;;;;;;10.50;10.30;;;;;;;;;;5499081;25;20489;-68
2024/04/24 06:33:21;;;;;;;10.20;10.00;;;;;;;;;;5489056;25;20547;-68
2024/04/24 06:35:50;;;;;;;10.47;10.27;;;;;;;;;;5497732;25;20595;-68
2024/04/24 06:38:21;;;;;;;10.77;10.47;;;;;;;;;;5489377;25;20598;-68
2024/04/24 06:40:50;;;;;;;11.13;10.83;;;;;;;;;;5499535;25;20472;-69
2024/04/24 06:43:19;;;;;;;10.93;10.63;;;;;;;;;;5492609;25;20477;-68
2024/04/24 06:45:48;;;;;;;11.00;10.70;;;;;;;;;;5500933;25;20611;-68
2024/04/24 06:48:17;;;;;;;9.70;9.50;;;;;;;;;;5494866;25;20539;-68
2024/04/24 06:50:49;;;;;;;11.00;10.70;;;;;;;;;;5496445;25;20630;-68
2024/04/24 06:53:18;;;;;;;10.13;9.93;;;;;;;;;;5497552;25;20472;-68
2024/04/24 06:55:47;;;;;;;10.17;9.97;;;;;;;;;;5498086;25;20907;-69
2024/04/24 06:58:15;;;;;;;10.47;10.27;;;;;;;;;;5496355;25;20472;-68
2024/04/24 07:00:45;;;;;;;11.40;11.10;;;;;;;;;;5488486;25;20569;-68
2024/04/24 07:03:16;;;;;;;11.17;10.87;;;;;;;;;;5498104;25;20530;-68
2024/04/24 07:05:48;;;;;;;10.50;10.30;;;;;;;;;;5498787;25;20488;-68
2024/04/24 07:08:19;;;;;;;11.10;10.80;;;;;;;;;;5495727;25;20592;-69
2024/04/24 07:10:48;;;;;;;10.73;10.43;;;;;;;;;;5495685;25;20542;-68
2024/04/24 07:13:17;;;;;;;11.33;11.03;;;;;;;;;;5499299;25;20521;-68
2024/04/24 07:15:46;;;;;;;11.13;10.83;;;;;;;;;;5484388;25;20482;-69
2024/04/24 07:18:15;;;;;;;11.07;10.77;;;;;;;;;;5497548;25;21547;-68
2024/04/24 07:20:44;;;;;;;11.90;11.60;;;;;;;;;;5494065;25;20500;-70
2024/04/24 07:23:16;;;;;;;13.07;12.67;;;;;;;;;;5497387;25;20487;-68
2024/04/24 07:25:45;;;;;;;13.97;13.47;;;;;;;;;;5484432;25;20487;-69
2024/04/24 07:28:14;;;;;;;13.30;12.90;;;;;;;;;;5497873;25;20949;-69
2024/04/24 07:30:43;;;;;;;13.57;13.17;;;;;;;;;;5500047;25;20522;-69
2024/04/24 07:33:12;;;;;;;13.50;13.10;;;;;;;;;;5495462;25;20619;-69
2024/04/24 07:35:43;;;;;;;13.87;13.37;;;;;;;;;;5498949;25;20996;-68
2024/04/24 07:38:13;;;;;;;14.40;13.90;;;;;;;;;;5497629;25;20481;-69
2024/04/24 07:40:45;;;;;;;14.90;14.40;;;;;;;;;;5490427;25;21017;-68
2024/04/24 07:43:14;;;;;;;14.57;14.07;;;;;;;;;;5497950;25;21068;-68
2024/04/24 07:45:43;;;;;;;14.70;14.20;;;;;;;;;;5493373;25;20549;-69
2024/04/24 07:48:12;;;;;;;14.80;14.30;;;;;;;;;;5496731;25;20615;-69
2024/04/24 07:50:45;;;;;;;14.50;14.00;;;;;;;;;;5498896;25;20485;-68
2024/04/24 07:53:11;;;;;;;15.40;14.80;;;;;;;;;;5492694;25;20545;-68
2024/04/24 07:55:40;;;;;;;15.60;15.00;;;;;;;;;;5492470;25;20468;-70
2024/04/24 07:58:12;;;;;;;15.80;15.20;;;;;;;;;;5491239;25;20622;-68
2024/04/24 08:00:42;;;;;;;15.53;14.93;;;;;;;;;;5502424;25;20558;-68
2024/04/24 08:03:11;;;;;;;15.33;14.73;;;;;;;;;;5492523;25;20600;-69
2024/04/24 08:05:40;;;;;;;15.50;14.90;;;;;;;;;;5491685;25;20554;-68
2024/04/24 08:08:09;;;;;;;16.20;15.50;;;;;;;;;;5489005;25;20997;-68
2024/04/24 08:10:38;;;;;;;15.40;14.80;;;;;;;;;;5496809;25;20542;-68
2024/04/24 08:13:09;;;;;;;15.30;14.70;;;;;;;;;;5492847;25;20477;-69
2024/04/24 08:15:41;;;;;;;15.47;14.87;;;;;;;;;;5495424;25;20586;-68
2024/04/24 08:18:10;;;;;;;15.53;14.93;;;;;;;;;;5495472;25;20557;-70
2024/04/24 08:20:39;;;;;;;15.77;15.17;;;;;;;;;;5498405;25;20481;-68
2024/04/24 08:23:08;;;;;;;15.67;15.07;;;;;;;;;;5492644;25;20479;-68
2024/04/24 08:25:37;;;;;;;15.67;15.07;;;;;;;;;;5494579;25;20497;-70
2024/04/24 08:28:07;;;;;;;15.90;15.30;;;;;;;;;;5498014;25;20939;-68
2024/04/24 08:30:36;;;;;;;16.50;15.80;;;;;;;;;;5495787;25;20584;-70
2024/04/24 08:33:08;;;;;;;19.37;18.37;;;;;;;;;;5496714;25;20465;-68
2024/04/24 08:35:37;;;;;;;20.90;19.60;;;;;;;;;;5499275;25;20698;-68
2024/04/24 08:38:07;;;;;;;21.37;20.07;;;;;;;;;;5492211;25;20479;-68
2024/04/24 08:40:36;;;;;;;21.00;19.80;;;;;;;;;;5497684;25;21031;-69
2024/04/24 08:43:04;;;;;;;19.93;18.83;;;;;;;;;;5491220;25;20961;-68
2024/04/24 08:45:34;;;;;;;20.17;19.07;;;;;;;;;;5491048;25;20572;-68
2024/04/24 08:48:03;;;;;;;18.93;18.03;;;;;;;;;;5493800;25;20857;-68
2024/04/24 08:50:34;;;;;;;18.57;17.67;;;;;;;;;;5494221;25;20593;-68
2024/04/24 08:53:06;;;;;;;18.07;17.27;;;;;;;;;;5495521;25;20620;-69
2024/04/24 08:55:36;;;;;;;17.13;16.43;;;;;;;;;;5491617;25;20461;-68
2024/04/24 08:58:06;;;;;;;16.47;15.77;;;;;;;;;;5494117;25;20585;-68
2024/04/24 09:00:35;;;;;;;17.10;16.40;;;;;;;;;;5488891;25;20797;-67
2024/04/24 09:03:08;;;;;;;16.13;15.53;;;;;;;;;;5496510;25;20565;-69
2024/04/24 09:05:41;;;;;;;16.40;15.80;;;;;;;;;;5494625;25;20488;-68
2024/04/24 09:08:11;;;;;;;15.80;15.20;;;;;;;;;;5497741;25;20551;-69
2024/04/24 09:10:41;;;;;;;15.87;15.27;;;;;;;;;;5494160;25;20558;-69
2024/04/24 09:13:10;;;;;;;16.00;15.40;;;;;;;;;;5494584;25;20561;-68
2024/04/24 09:15:39;;;;;;;16.00;15.40;;;;;;;;;;5487255;25;20479;-68
2024/04/24 09:18:09;;;;;;;16.03;15.43;;;;;;;;;;5493105;25;20536;-69
2024/04/24 09:20:42;;;;;;;15.83;15.23;;;;;;;;;;5491514;25;20535;-69
2024/04/24 09:23:14;;;;;;;15.93;15.33;;;;;;;;;;5485622;25;20486;-69
2024/04/24 09:25:42;;;;;;;16.10;15.50;;;;;;;;;;5495453;25;20494;-69
2024/04/24 09:28:11;;;;;;;16.03;15.43;;;;;;;;;;5491927;25;20604;-69
2024/04/24 09:30:42;;;;;;;17.20;16.50;;;;;;;;;;5494652;25;20491;-69
2024/04/24 09:33:11;;;;;;;17.00;16.30;;;;;;;;;;5483922;25;20922;-70
2024/04/24 09:35:43;;;;;;;16.87;16.17;;;;;;;;;;5492638;25;20560;-70
2024/04/24 09:38:13;;;;;;;16.77;16.07;;;;;;;;;;5499087;25;20499;-69
2024/04/24 09:40:43;;;;;;;17.17;16.47;;;;;;;;;;5490875;25;20619;-69
2024/04/24 09:43:12;;;;;;;17.27;16.57;;;;;;;;;;5495952;25;20500;-70
2024/04/24 09:45:41;;;;;;;16.97;16.27;;;;;;;;;;5494255;25;20482;-70
2024/04/24 09:48:10;;;;;;;16.40;15.80;;;;;;;;;;5494848;25;20484;-68
2024/04/24 09:50:44;;;;;;;17.33;16.63;;;;;;;;;;5492596;25;20479;-68
2024/04/24 09:53:18;;;;;;;16.17;15.57;;;;;;;;;;5489354;25;20876;-69
2024/04/24 09:55:51;;;;;;;16.47;15.87;;;;;;;;;;5492480;25;20559;-69
2024/04/24 09:58:23;;;;;;;16.30;15.70;;;;;;;;;;5495414;25;20554;-68
2024/04/24 10:00:53;;;;;;;16.73;16.03;;;;;;;;;;5501075;25;20889;-68
2024/04/24 10:03:22;;;;;;;17.13;16.43;;;;;;;;;;5498161;25;20567;-68
2024/04/24 10:05:54;;;;;;;17.80;17.00;;;;;;;;;;5499640;25;20925;-68
2024/04/24 10:08:26;;;;;;;17.00;16.30;;;;;;;;;;5490382;25;20990;-70
2024/04/24 10:10:56;;;;;;;16.50;15.80;;;;;;;;;;5488207;25;20990;-68
2024/04/24 10:13:26;;;;;;;15.50;14.90;;;;;;;;;;5491635;25;20569;-68
2024/04/24 10:15:58;;;;;;;16.50;15.80;;;;;;;;;;5494361;25;20524;-70
2024/04/24 10:18:28;;;;;;;16.10;15.50;;;;;;;;;;5493349;25;21240;-68
2024/04/24 10:21:00;;;;;;;16.83;16.13;;;;;;;;;;5501033;25;20478;-70
2024/04/24 10:23:30;;;;;;;16.07;15.47;;;;;;;;;;5498116;25;20592;-68
2024/04/24 10:26:00;;;;;;;16.17;15.57;;;;;;;;;;5490534;25;20488;-68
2024/04/24 10:28:30;;;;;;;16.80;16.10;;;;;;;;;;5492386;25;20480;-68
2024/04/24 10:31:01;;;;;;;16.40;15.80;;;;;;;;;;5500302;25;21095;-68
2024/04/24 10:33:31;;;;;;;16.30;15.70;;;;;;;;;;5498860;25;20878;-70
2024/04/24 10:36:03;;;;;;;16.63;16.03;;;;;;;;;;5489737;25;20483;-70
2024/04/24 10:38:34;;;;;;;17.23;16.53;;;;;;;;;;5498016;25;21501;-68
2024/04/24 10:41:03;;;;;;;17.40;16.70;;;;;;;;;;5495500;25;20481;-69
2024/04/24 10:43:34;;;;;;;18.47;17.67;;;;;;;;;;5502215;25;20463;-68
2024/04/24 10:46:06;;;;;;;18.60;17.70;;;;;;;;;;5495136;25;20576;-69
2024/04/24 10:48:56;;;;;;;18.13;17.33;;;;;;;;;;5492797;25;20487;-69
2024/04/24 10:51:35;;;;;;;17.27;16.50;;;;;;;;;;5498479;25;20531;-69
2024/04/24 10:54:15;;;;;;;16.93;16.23;;;;;;;;;;5497106;25;21064;-69
2024/04/24 10:56:44;;;;;;;15.63;15.03;;;;;;;;;;5488670;25;20469;-69
2024/04/24 10:59:13;;;;;;;15.87;15.27;;;;;;;;;;5493293;25;20484;-68
2024/04/24 11:01:45;;;;;;;15.87;15.27;;;;;;;;;;5496261;25;20553;-69
2024/04/24 11:04:15;;;;;;;15.60;15.00;;;;;;;;;;5499497;25;20520;-69
2024/04/24 11:06:48;;;;;;;15.80;15.20;;;;;;;;;;5497484;25;20518;-69
2024/04/24 11:09:17;;;;;;;15.67;15.07;;;;;;;;;;5496688;25;21098;-69
2024/04/24 11:11:47;;;;;;;14.33;13.83;;;;;;;;;;5490654;25;20482;-69
2024/04/24 11:14:16;;;;;;;14.93;14.43;;;;;;;;;;5495372;25;20484;-69
2024/04/24 11:16:56;;;;;;;14.70;14.20;;;;;;;;;;5498493;25;20488;-68
2024/04/24 11:19:25;;;;;;;14.83;14.33;;;;;;;;;;5499458;25;20579;-70
2024/04/24 11:21:57;;;;;;;14.73;14.23;;;;;;;;;;5495570;25;20616;-69
2024/04/24 11:24:30;;;;;;;15.30;14.70;;;;;;;;;;5493275;25;20585;-68
2024/04/24 11:26:56;;;;;;;14.47;13.97;;;;;;;;;;5502004;25;20752;-70
2024/04/24 11:29:25;;;;;;;14.90;14.40;;;;;;;;;;5484982;25;20530;-69
2024/04/24 11:31:56;;;;;;;15.20;14.70;;;;;;;;;;5497199;25;20486;-69
2024/04/24 11:34:26;;;;;;;15.50;14.90;;;;;;;;;;5493696;25;21211;-69
2024/04/24 11:36:58;;;;;;;14.97;14.47;;;;;;;;;;5497659;25;20503;-68
2024/04/24 11:39:27;;;;;;;16.20;15.60;;;;;;;;;;5499144;25;21016;-69
2024/04/24 11:41:58;;;;;;;15.90;15.30;;;;;;;;;;5500713;25;20623;-71
2024/04/24 11:44:28;;;;;;;16.57;15.97;;;;;;;;;;5487034;25;20619;-69
2024/04/24 11:46:57;;;;;;;16.67;16.07;;;;;;;;;;5491720;25;21173;-69
2024/04/24 11:49:26;;;;;;;16.07;15.47;;;;;;;;;;5498966;25;20478;-69
2024/04/24 11:51:58;;;;;;;16.13;15.53;;;;;;;;;;5496742;25;20899;-69
2024/04/24 11:54:30;;;;;;;15.77;15.27;;;;;;;;;;5496155;25;20931;-69
2024/04/24 11:57:01;;;;;;;16.30;15.70;;;;;;;;;;5497398;25;20846;-71
2024/04/24 11:59:32;;;;;;;15.93;15.33;;;;;;;;;;5492980;25;21049;-71
2024/04/24 12:02:02;;;;;;;16.43;15.83;;;;;;;;;;5500182;25;20529;-68
2024/04/24 12:04:31;;;;;;;16.40;15.80;;;;;;;;;;5494842;25;20578;-69
2024/04/24 12:07:06;;;;;;;16.67;16.07;;;;;;;;;;5496549;25;20908;-68
2024/04/24 12:09:39;;;;;;;16.67;16.07;;;;;;;;;;5497835;25;21076;-69
2024/04/24 12:12:08;;;;;;;15.80;15.30;;;;;;;;;;5497728;25;20469;-68
2024/04/24 12:14:37;;;;;;;16.37;15.77;;;;;;;;;;5496803;25;20623;-71
2024/04/24 12:17:06;;;;;;;16.13;15.53;;;;;;;;;;5498130;25;20824;-69
2024/04/24 12:19:36;;;;;;;15.63;15.13;;;;;;;;;;5493126;25;20474;-71
2024/04/24 12:22:08;;;;;;;15.47;14.97;;;;;;;;;;5493927;25;20479;-69
2024/04/24 12:24:37;;;;;;;15.23;14.73;;;;;;;;;;5499533;25;20571;-71
2024/04/24 12:27:06;;;;;;;16.10;15.50;;;;;;;;;;5492991;25;20477;-72
2024/04/24 12:29:35;;;;;;;15.50;15.00;;;;;;;;;;5487089;25;20551;-70
2024/04/24 12:32:04;;;;;;;15.50;15.00;;;;;;;;;;5491301;25;21042;-71
2024/04/24 12:34:33;;;;;;;15.10;14.60;;;;;;;;;;5481164;25;20528;-71
2024/04/24 12:37:02;;;;;;;15.80;15.20;;;;;;;;;;5491599;25;20595;-71
2024/04/24 12:39:34;;;;;;;16.27;15.67;;;;;;;;;;5490909;25;22708;-68
2024/04/24 12:42:03;;;;;;;19.53;18.47;;;;;;;;;;5491282;25;20550;-67
2024/04/24 12:44:33;;;;;;;18.23;17.33;;;;;;;;;;5495557;25;21058;-68
2024/04/24 12:47:01;;;;;;;17.80;16.90;;;;;;;;;;5489133;25;20536;-69
2024/04/24 12:49:30;;;;;;;17.30;16.50;;;;;;;;;;5492175;25;20540;-68
2024/04/24 12:51:59;;;;;;;15.50;14.90;;;;;;;;;;5492585;25;21134;-70
2024/04/24 12:54:28;;;;;;;15.67;15.07;;;;;;;;;;5493028;25;20937;-71
2024/04/24 12:56:59;;;;;;;15.50;15.00;;;;;;;;;;5487676;25;20504;-70
2024/04/24 12:59:28;;;;;;;15.83;15.23;;;;;;;;;;5498559;25;20513;-69
2024/04/24 13:01:57;;;;;;;15.63;15.10;;;;;;;;;;5496110;25;20487;-69
2024/04/24 13:04:26;;;;;;;16.10;15.50;;;;;;;;;;5494359;25;20581;-69
2024/04/24 13:06:55;;;;;;;16.20;15.60;;;;;;;;;;5499762;25;20593;-69
2024/04/24 13:09:24;;;;;;;16.57;15.97;;;;;;;;;;5491049;25;21070;-71
2024/04/24 13:11:54;;;;;;;16.10;15.50;;;;;;;;;;5498979;25;20531;-70
2024/04/24 13:14:26;;;;;;;15.70;15.10;;;;;;;;;;5494845;25;20955;-69
2024/04/24 13:16:56;;;;;;;15.87;15.27;;;;;;;;;;5488383;25;20619;-70
2024/04/24 13:19:25;;;;;;;16.03;15.43;;;;;;;;;;5493504;25;20533;-69
2024/04/24 13:21:54;;;;;;;17.00;16.30;;;;;;;;;;5494416;25;21207;-69
2024/04/24 13:24:23;;;;;;;22.40;20.80;;;;;;;;;;5497945;25;20459;-68
2024/04/24 13:26:52;;;;;;;25.10;23.20;;;;;;;;;;5495805;25;20551;-68
2024/04/24 13:29:21;;;;;;;22.97;21.37;;;;;;;;;;5487655;25;20619;-69
2024/04/24 13:31:53;;;;;;;20.70;19.40;;;;;;;;;;5496637;25;21146;-69
2024/04/24 13:34:22;;;;;;;22.27;20.77;;;;;;;;;;5494527;25;20954;-72
2024/04/24 13:36:51;;;;;;;22.90;21.20;;;;;;;;;;5496718;25;20540;-70
2024/04/24 13:39:20;;;;;;;23.53;21.83;;;;;;;;;;5501768;25;20506;-70
2024/04/24 13:41:49;;;;;;;23.10;21.50;;;;;;;;;;5494273;25;20560;-69
2024/04/24 13:44:20;;;;;;;21.93;20.53;;;;;;;;;;5497932;25;21094;-69
2024/04/24 13:46:48;;;;;;;23.10;21.60;;;;;;;;;;5494229;25;20489;-70
2024/04/24 13:49:20;;;;;;;22.40;21.00;;;;;;;;;;5500463;25;20558;-68
2024/04/24 13:51:49;;;;;;;22.33;20.93;;;;;;;;;;5492550;25;20558;-68
2024/04/24 13:54:18;;;;;;;20.30;19.20;;;;;;;;;;5497717;25;21151;-71
2024/04/24 13:56:47;;;;;;;18.83;17.93;;;;;;;;;;5500038;25;20539;-69
2024/04/24 13:59:15;;;;;;;18.13;17.33;;;;;;;;;;5496331;25;20482;-69
2024/04/24 14:01:44;;;;;;;17.23;16.43;;;;;;;;;;5498921;25;20981;-70
2024/04/24 14:04:13;;;;;;;17.47;16.67;;;;;;;;;;5497138;25;20991;-69
2024/04/24 14:06:45;;;;;;;16.63;15.93;;;;;;;;;;5496896;25;20678;-68
2024/04/24 14:09:14;;;;;;;16.80;16.10;;;;;;;;;;5496498;25;20473;-68
2024/04/24 14:11:43;;;;;;;15.90;15.30;;;;;;;;;;5488885;25;20571;-70
2024/04/24 14:14:12;;;;;;;16.10;15.50;;;;;;;;;;5487809;25;21011;-70
2024/04/24 14:16:41;;;;;;;15.77;15.23;;;;;;;;;;5488447;25;20549;-68
2024/04/24 14:19:09;;;;;;;15.90;15.40;;;;;;;;;;5494307;25;20465;-70
2024/04/24 14:21:38;;;;;;;16.23;15.63;;;;;;;;;;5499753;25;20608;-69
2024/04/24 14:24:11;;;;;;;16.77;16.17;;;;;;;;;;5501978;25;20540;-69
2024/04/24 14:26:40;;;;;;;17.07;16.37;;;;;;;;;;5492575;25;20693;-69
2024/04/24 14:29:12;;;;;;;18.00;17.30;;;;;;;;;;5497862;25;20457;-69
2024/04/24 14:31:43;;;;;;;17.20;16.60;;;;;;;;;;5503223;25;20529;-68
2024/04/24 14:34:12;;;;;;;16.77;16.17;;;;;;;;;;5492241;25;20945;-69
2024/04/24 14:36:41;;;;;;;15.70;15.10;;;;;;;;;;5495737;25;20482;-69